sensor_id;sensor_type;location;lat;lon;timestamp;P1;durP1;ratioP1;P2;durP2;ratioP2
13799;SDS011;6971;50.028;9.258;2023-02-24T00:04:44;34.07;;;19.63;;
13799;SDS011;6971;50.028;9.258;2023-02-24T00:09:50;36.27;;;21.30;;
13799;SDS011;6971;50.028;9.258;2023-02-24T00:14:50;35.93;;;21.10;;
13799;SDS011;6971;50.028;9.258;2023-02-24T00:19:51;37.03;;;21.07;;
13799;SDS011;6971;50.028;9.258;2023-02-24T00:24:52;39.80;;;21.67;;
13799;SDS011;6971;50.028;9.258;2023-02-24T00:29:53;39.17;;;21.50;;
13799;SDS011;6971;50.028;9.258;2023-02-24T00:34:53;37.17;;;22.13;;
13799;SDS011;6971;50.028;9.258;2023-02-24T00:39:54;43.33;;;21.77;;
13799;SDS011;6971;50.028;9.258;2023-02-24T00:44:57;41.93;;;22.70;;
13799;SDS011;6971;50.028;9.258;2023-02-24T00:49:57;39.10;;;21.60;;
13799;SDS011;6971;50.028;9.258;2023-02-24T00:54:58;43.78;;;24.02;;
13799;SDS011;6971;50.028;9.258;2023-02-24T00:59:58;40.23;;;21.73;;
13799;SDS011;6971;50.028;9.258;2023-02-24T01:04:59;43.77;;;22.33;;
13799;SDS011;6971;50.028;9.258;2023-02-24T01:10:05;45.13;;;24.23;;
13799;SDS011;6971;50.028;9.258;2023-02-24T01:15:07;44.77;;;24.37;;
13799;SDS011;6971;50.028;9.258;2023-02-24T01:20:10;44.13;;;23.33;;
13799;SDS011;6971;50.028;9.258;2023-02-24T01:25:18;50.40;;;24.77;;
13799;SDS011;6971;50.028;9.258;2023-02-24T01:30:21;44.33;;;22.77;;
13799;SDS011;6971;50.028;9.258;2023-02-24T01:35:22;44.53;;;23.77;;
13799;SDS011;6971;50.028;9.258;2023-02-24T01:40:24;49.23;;;23.93;;
13799;SDS011;6971;50.028;9.258;2023-02-24T01:45:26;44.73;;;23.07;;
13799;SDS011;6971;50.028;9.258;2023-02-24T01:50:30;47.97;;;23.90;;
13799;SDS011;6971;50.028;9.258;2023-02-24T01:55:39;42.67;;;22.40;;
13799;SDS011;6971;50.028;9.258;2023-02-24T02:00:42;49.30;;;24.73;;
13799;SDS011;6971;50.028;9.258;2023-02-24T02:05:46;48.93;;;24.93;;
13799;SDS011;6971;50.028;9.258;2023-02-24T02:10:47;51.27;;;25.40;;
13799;SDS011;6971;50.028;9.258;2023-02-24T02:16:31;47.50;;;23.87;;
13799;SDS011;6971;50.028;9.258;2023-02-24T02:42:56;48.07;;;24.37;;
13799;SDS011;6971;50.028;9.258;2023-02-24T02:48:04;49.17;;;22.80;;
13799;SDS011;6971;50.028;9.258;2023-02-24T02:53:12;47.67;;;24.00;;
13799;SDS011;6971;50.028;9.258;2023-02-24T02:58:20;42.83;;;22.73;;
13799;SDS011;6971;50.028;9.258;2023-02-24T03:03:25;47.23;;;22.97;;
13799;SDS011;6971;50.028;9.258;2023-02-24T03:08:29;46.40;;;21.60;;
13799;SDS011;6971;50.028;9.258;2023-02-24T03:13:36;47.57;;;22.33;;
13799;SDS011;6971;50.028;9.258;2023-02-24T03:18:42;47.07;;;22.60;;
13799;SDS011;6971;50.028;9.258;2023-02-24T03:23:49;44.47;;;21.07;;
13799;SDS011;6971;50.028;9.258;2023-02-24T03:28:52;41.63;;;19.90;;
13799;SDS011;6971;50.028;9.258;2023-02-24T03:34:01;45.37;;;20.73;;
13799;SDS011;6971;50.028;9.258;2023-02-24T03:39:07;49.53;;;23.90;;
13799;SDS011;6971;50.028;9.258;2023-02-24T03:44:11;47.30;;;22.93;;
13799;SDS011;6971;50.028;9.258;2023-02-24T03:49:12;42.43;;;20.90;;
13799;SDS011;6971;50.028;9.258;2023-02-24T03:54:21;47.37;;;21.67;;
13799;SDS011;6971;50.028;9.258;2023-02-24T04:20:18;36.83;;;17.33;;
13799;SDS011;6971;50.028;9.258;2023-02-24T04:25:22;37.97;;;18.47;;
13799;SDS011;6971;50.028;9.258;2023-02-24T04:30:25;44.53;;;18.70;;
13799;SDS011;6971;50.028;9.258;2023-02-24T04:35:29;46.30;;;20.03;;
13799;SDS011;6971;50.028;9.258;2023-02-24T04:40:29;49.53;;;21.40;;
13799;SDS011;6971;50.028;9.258;2023-02-24T04:45:30;48.83;;;21.47;;
13799;SDS011;6971;50.028;9.258;2023-02-24T04:50:32;45.60;;;20.73;;
13799;SDS011;6971;50.028;9.258;2023-02-24T04:55:35;41.53;;;18.30;;
13799;SDS011;6971;50.028;9.258;2023-02-24T05:00:40;38.27;;;18.80;;
13799;SDS011;6971;50.028;9.258;2023-02-24T05:05:47;42.47;;;19.53;;
13799;SDS011;6971;50.028;9.258;2023-02-24T05:10:50;38.73;;;17.80;;
13799;SDS011;6971;50.028;9.258;2023-02-24T05:15:51;36.27;;;16.97;;
13799;SDS011;6971;50.028;9.258;2023-02-24T05:20:56;41.13;;;19.83;;
13799;SDS011;6971;50.028;9.258;2023-02-24T05:26:15;36.57;;;17.53;;
13799;SDS011;6971;50.028;9.258;2023-02-24T05:31:19;38.60;;;17.33;;
13799;SDS011;6971;50.028;9.258;2023-02-24T05:36:22;35.93;;;17.17;;
13799;SDS011;6971;50.028;9.258;2023-02-24T05:41:25;38.13;;;16.27;;
13799;SDS011;6971;50.028;9.258;2023-02-24T05:46:39;34.50;;;16.50;;
13799;SDS011;6971;50.028;9.258;2023-02-24T05:51:41;39.43;;;19.40;;
13799;SDS011;6971;50.028;9.258;2023-02-24T05:56:53;40.63;;;18.23;;
13799;SDS011;6971;50.028;9.258;2023-02-24T06:02:09;39.97;;;18.53;;
13799;SDS011;6971;50.028;9.258;2023-02-24T06:07:12;47.80;;;20.67;;
13799;SDS011;6971;50.028;9.258;2023-02-24T06:12:18;35.10;;;16.70;;
13799;SDS011;6971;50.028;9.258;2023-02-24T06:17:20;36.40;;;16.67;;
13799;SDS011;6971;50.028;9.258;2023-02-24T06:22:22;37.80;;;17.77;;
13799;SDS011;6971;50.028;9.258;2023-02-24T06:27:25;41.10;;;18.00;;
13799;SDS011;6971;50.028;9.258;2023-02-24T06:32:26;34.50;;;16.93;;
13799;SDS011;6971;50.028;9.258;2023-02-24T06:37:26;41.83;;;17.77;;
13799;SDS011;6971;50.028;9.258;2023-02-24T06:42:28;43.03;;;18.00;;
13799;SDS011;6971;50.028;9.258;2023-02-24T06:47:29;33.53;;;15.17;;
13799;SDS011;6971;50.028;9.258;2023-02-24T06:52:32;40.80;;;16.73;;
13799;SDS011;6971;50.028;9.258;2023-02-24T06:57:33;39.80;;;17.17;;
13799;SDS011;6971;50.028;9.258;2023-02-24T07:02:34;42.30;;;16.93;;
13799;SDS011;6971;50.028;9.258;2023-02-24T07:07:38;41.33;;;17.27;;
13799;SDS011;6971;50.028;9.258;2023-02-24T07:12:44;44.43;;;21.00;;
13799;SDS011;6971;50.028;9.258;2023-02-24T07:17:45;52.23;;;23.30;;
13799;SDS011;6971;50.028;9.258;2023-02-24T07:22:46;58.07;;;24.20;;
13799;SDS011;6971;50.028;9.258;2023-02-24T07:27:47;47.50;;;20.93;;
13799;SDS011;6971;50.028;9.258;2023-02-24T07:32:47;48.10;;;23.17;;
13799;SDS011;6971;50.028;9.258;2023-02-24T07:37:48;46.47;;;21.30;;
13799;SDS011;6971;50.028;9.258;2023-02-24T07:42:48;51.53;;;21.47;;
13799;SDS011;6971;50.028;9.258;2023-02-24T07:47:49;51.90;;;24.50;;
13799;SDS011;6971;50.028;9.258;2023-02-24T07:52:49;60.07;;;25.90;;
13799;SDS011;6971;50.028;9.258;2023-02-24T07:57:50;49.20;;;22.57;;
13799;SDS011;6971;50.028;9.258;2023-02-24T08:02:53;51.67;;;23.83;;
13799;SDS011;6971;50.028;9.258;2023-02-24T08:07:55;53.40;;;24.17;;
13799;SDS011;6971;50.028;9.258;2023-02-24T08:12:56;58.73;;;28.43;;
13799;SDS011;6971;50.028;9.258;2023-02-24T08:18:01;58.87;;;29.67;;
13799;SDS011;6971;50.028;9.258;2023-02-24T08:23:02;52.80;;;27.17;;
13799;SDS011;6971;50.028;9.258;2023-02-24T08:28:06;56.43;;;26.87;;
13799;SDS011;6971;50.028;9.258;2023-02-24T08:33:11;47.27;;;24.00;;
13799;SDS011;6971;50.028;9.258;2023-02-24T08:38:22;45.27;;;23.33;;
13799;SDS011;6971;50.028;9.258;2023-02-24T08:48:47;44.40;;;22.50;;
13799;SDS011;6971;50.028;9.258;2023-02-24T08:53:49;46.23;;;30.13;;
13799;SDS011;6971;50.028;9.258;2023-02-24T08:58:55;43.47;;;20.93;;
13799;SDS011;6971;50.028;9.258;2023-02-24T09:04:06;38.43;;;20.70;;
13799;SDS011;6971;50.028;9.258;2023-02-24T09:09:08;43.47;;;25.97;;
13799;SDS011;6971;50.028;9.258;2023-02-24T09:14:18;37.43;;;20.43;;
13799;SDS011;6971;50.028;9.258;2023-02-24T09:19:19;41.50;;;23.63;;
13799;SDS011;6971;50.028;9.258;2023-02-24T09:24:42;39.33;;;22.07;;
13799;SDS011;6971;50.028;9.258;2023-02-24T09:29:43;43.63;;;25.70;;
13799;SDS011;6971;50.028;9.258;2023-02-24T09:34:50;69.47;;;38.83;;
13799;SDS011;6971;50.028;9.258;2023-02-24T09:39:52;36.37;;;19.93;;
13799;SDS011;6971;50.028;9.258;2023-02-24T09:44:54;39.67;;;22.27;;
13799;SDS011;6971;50.028;9.258;2023-02-24T09:49:57;35.27;;;20.37;;
13799;SDS011;6971;50.028;9.258;2023-02-24T09:55:08;37.43;;;20.80;;
13799;SDS011;6971;50.028;9.258;2023-02-24T10:00:29;39.37;;;21.90;;
13799;SDS011;6971;50.028;9.258;2023-02-24T10:05:36;38.77;;;21.23;;
13799;SDS011;6971;50.028;9.258;2023-02-24T10:10:46;37.93;;;20.20;;
13799;SDS011;6971;50.028;9.258;2023-02-24T10:16:08;37.70;;;21.87;;
13799;SDS011;6971;50.028;9.258;2023-02-24T10:26:51;37.00;;;19.80;;
13799;SDS011;6971;50.028;9.258;2023-02-24T10:32:06;37.17;;;20.33;;
13799;SDS011;6971;50.028;9.258;2023-02-24T10:37:22;36.67;;;20.10;;
13799;SDS011;6971;50.028;9.258;2023-02-24T10:42:29;45.03;;;23.27;;
13799;SDS011;6971;50.028;9.258;2023-02-24T10:47:31;38.10;;;21.43;;
13799;SDS011;6971;50.028;9.258;2023-02-24T10:57:43;41.73;;;22.17;;
13799;SDS011;6971;50.028;9.258;2023-02-24T11:02:52;35.30;;;19.93;;
13799;SDS011;6971;50.028;9.258;2023-02-24T11:08:13;36.07;;;20.90;;
13799;SDS011;6971;50.028;9.258;2023-02-24T11:13:35;35.10;;;20.43;;
13799;SDS011;6971;50.028;9.258;2023-02-24T11:18:54;35.10;;;19.97;;
13799;SDS011;6971;50.028;9.258;2023-02-24T11:23:57;33.40;;;18.27;;
13799;SDS011;6971;50.028;9.258;2023-02-24T11:34:44;27.30;;;16.87;;
13799;SDS011;6971;50.028;9.258;2023-02-24T11:40:13;26.47;;;17.60;;
13799;SDS011;6971;50.028;9.258;2023-02-24T11:55:53;33.50;;;20.33;;
13799;SDS011;6971;50.028;9.258;2023-02-24T12:01:07;26.40;;;17.00;;
13799;SDS011;6971;50.028;9.258;2023-02-24T12:06:18;36.27;;;23.77;;
13799;SDS011;6971;50.028;9.258;2023-02-24T12:11:33;33.13;;;21.30;;
13799;SDS011;6971;50.028;9.258;2023-02-24T12:16:41;25.83;;;16.47;;
13799;SDS011;6971;50.028;9.258;2023-02-24T12:21:48;30.03;;;17.83;;
13799;SDS011;6971;50.028;9.258;2023-02-24T12:48:53;20.07;;;13.00;;
13799;SDS011;6971;50.028;9.258;2023-02-24T12:59:12;18.80;;;11.73;;
13799;SDS011;6971;50.028;9.258;2023-02-24T13:04:21;19.77;;;12.77;;
13799;SDS011;6971;50.028;9.258;2023-02-24T13:14:37;16.67;;;10.63;;
13799;SDS011;6971;50.028;9.258;2023-02-24T13:19:43;17.43;;;10.73;;
13799;SDS011;6971;50.028;9.258;2023-02-24T13:29:58;15.73;;;9.93;;
13799;SDS011;6971;50.028;9.258;2023-02-24T13:45:17;11.23;;;7.83;;
13799;SDS011;6971;50.028;9.258;2023-02-24T14:01:01;13.80;;;8.93;;
13799;SDS011;6971;50.028;9.258;2023-02-24T14:06:04;19.13;;;10.20;;
13799;SDS011;6971;50.028;9.258;2023-02-24T14:11:13;15.47;;;9.40;;
13799;SDS011;6971;50.028;9.258;2023-02-24T14:16:23;15.07;;;9.30;;
13799;SDS011;6971;50.028;9.258;2023-02-24T14:21:27;15.37;;;9.20;;
13799;SDS011;6971;50.028;9.258;2023-02-24T14:26:33;17.93;;;11.37;;
13799;SDS011;6971;50.028;9.258;2023-02-24T14:31:40;12.97;;;9.53;;
13799;SDS011;6971;50.028;9.258;2023-02-24T14:36:45;15.30;;;9.20;;
13799;SDS011;6971;50.028;9.258;2023-02-24T14:41:48;15.10;;;11.20;;
13799;SDS011;6971;50.028;9.258;2023-02-24T14:46:53;23.30;;;13.47;;
13799;SDS011;6971;50.028;9.258;2023-02-24T14:52:08;28.53;;;14.90;;
13799;SDS011;6971;50.028;9.258;2023-02-24T14:57:17;16.17;;;9.97;;
13799;SDS011;6971;50.028;9.258;2023-02-24T15:02:22;15.63;;;9.43;;
13799;SDS011;6971;50.028;9.258;2023-02-24T15:07:30;16.77;;;10.47;;
13799;SDS011;6971;50.028;9.258;2023-02-24T15:12:34;15.70;;;10.13;;
13799;SDS011;6971;50.028;9.258;2023-02-24T15:17:43;18.57;;;9.87;;
13799;SDS011;6971;50.028;9.258;2023-02-24T15:22:48;13.30;;;8.87;;
13799;SDS011;6971;50.028;9.258;2023-02-24T15:27:50;15.10;;;9.00;;
13799;SDS011;6971;50.028;9.258;2023-02-24T15:38:21;12.07;;;8.63;;
13799;SDS011;6971;50.028;9.258;2023-02-24T15:43:32;13.73;;;8.47;;
13799;SDS011;6971;50.028;9.258;2023-02-24T15:48:41;16.87;;;9.77;;
13799;SDS011;6971;50.028;9.258;2023-02-24T15:53:42;15.23;;;8.37;;
13799;SDS011;6971;50.028;9.258;2023-02-24T15:58:43;16.07;;;9.87;;
13799;SDS011;6971;50.028;9.258;2023-02-24T16:03:43;12.27;;;8.10;;
13799;SDS011;6971;50.028;9.258;2023-02-24T16:08:44;16.73;;;10.23;;
13799;SDS011;6971;50.028;9.258;2023-02-24T16:13:49;13.87;;;8.23;;
13799;SDS011;6971;50.028;9.258;2023-02-24T16:18:52;15.97;;;8.30;;
13799;SDS011;6971;50.028;9.258;2023-02-24T16:23:52;13.27;;;7.53;;
13799;SDS011;6971;50.028;9.258;2023-02-24T16:28:56;11.93;;;7.13;;
13799;SDS011;6971;50.028;9.258;2023-02-24T16:33:56;13.47;;;7.97;;
13799;SDS011;6971;50.028;9.258;2023-02-24T16:38:57;14.07;;;8.80;;
13799;SDS011;6971;50.028;9.258;2023-02-24T16:43:57;18.87;;;9.90;;
13799;SDS011;6971;50.028;9.258;2023-02-24T16:48:58;11.40;;;5.67;;
13799;SDS011;6971;50.028;9.258;2023-02-24T16:53:58;10.87;;;7.50;;
13799;SDS011;6971;50.028;9.258;2023-02-24T16:58:58;10.90;;;7.45;;
13799;SDS011;6971;50.028;9.258;2023-02-24T17:03:59;11.87;;;8.50;;
13799;SDS011;6971;50.028;9.258;2023-02-24T17:08:59;9.27;;;5.53;;
13799;SDS011;6971;50.028;9.258;2023-02-24T17:14:00;9.77;;;5.60;;
13799;SDS011;6971;50.028;9.258;2023-02-24T17:19:00;10.27;;;6.20;;
13799;SDS011;6971;50.028;9.258;2023-02-24T17:24:00;12.40;;;7.30;;
13799;SDS011;6971;50.028;9.258;2023-02-24T17:29:01;11.13;;;6.83;;
13799;SDS011;6971;50.028;9.258;2023-02-24T17:34:01;21.83;;;14.70;;
13799;SDS011;6971;50.028;9.258;2023-02-24T17:39:01;13.60;;;8.10;;
13799;SDS011;6971;50.028;9.258;2023-02-24T17:44:02;14.83;;;7.67;;
13799;SDS011;6971;50.028;9.258;2023-02-24T17:49:02;20.83;;;13.93;;
13799;SDS011;6971;50.028;9.258;2023-02-24T17:54:04;24.00;;;12.90;;
13799;SDS011;6971;50.028;9.258;2023-02-24T17:59:04;98.03;;;43.70;;
13799;SDS011;6971;50.028;9.258;2023-02-24T18:04:05;13.73;;;7.53;;
13799;SDS011;6971;50.028;9.258;2023-02-24T18:09:05;9.70;;;5.73;;
13799;SDS011;6971;50.028;9.258;2023-02-24T18:14:06;21.67;;;9.87;;
13799;SDS011;6971;50.028;9.258;2023-02-24T18:19:06;8.03;;;4.23;;
13799;SDS011;6971;50.028;9.258;2023-02-24T18:24:07;12.50;;;5.47;;
13799;SDS011;6971;50.028;9.258;2023-02-24T18:29:08;7.50;;;5.47;;
13799;SDS011;6971;50.028;9.258;2023-02-24T18:34:09;6.67;;;4.50;;
13799;SDS011;6971;50.028;9.258;2023-02-24T18:39:09;6.90;;;4.63;;
13799;SDS011;6971;50.028;9.258;2023-02-24T18:44:13;7.27;;;5.00;;
13799;SDS011;6971;50.028;9.258;2023-02-24T18:49:13;8.20;;;5.77;;
13799;SDS011;6971;50.028;9.258;2023-02-24T18:54:14;8.90;;;5.03;;
13799;SDS011;6971;50.028;9.258;2023-02-24T18:59:15;6.83;;;4.87;;
13799;SDS011;6971;50.028;9.258;2023-02-24T19:04:15;8.97;;;5.80;;
13799;SDS011;6971;50.028;9.258;2023-02-24T19:09:16;7.43;;;4.33;;
13799;SDS011;6971;50.028;9.258;2023-02-24T19:14:21;7.63;;;4.87;;
13799;SDS011;6971;50.028;9.258;2023-02-24T19:19:22;9.53;;;5.90;;
13799;SDS011;6971;50.028;9.258;2023-02-24T19:24:22;13.63;;;8.07;;
13799;SDS011;6971;50.028;9.258;2023-02-24T19:29:23;11.23;;;8.50;;
13799;SDS011;6971;50.028;9.258;2023-02-24T19:34:23;12.97;;;9.57;;
13799;SDS011;6971;50.028;9.258;2023-02-24T19:39:24;10.20;;;8.20;;
13799;SDS011;6971;50.028;9.258;2023-02-24T19:44:24;21.80;;;16.43;;
13799;SDS011;6971;50.028;9.258;2023-02-24T19:49:25;11.07;;;7.70;;
13799;SDS011;6971;50.028;9.258;2023-02-24T19:54:25;12.37;;;8.73;;
13799;SDS011;6971;50.028;9.258;2023-02-24T19:59:27;15.80;;;9.60;;
13799;SDS011;6971;50.028;9.258;2023-02-24T20:04:28;14.73;;;10.43;;
13799;SDS011;6971;50.028;9.258;2023-02-24T20:09:31;13.97;;;7.97;;
13799;SDS011;6971;50.028;9.258;2023-02-24T20:14:31;16.40;;;9.90;;
13799;SDS011;6971;50.028;9.258;2023-02-24T20:19:32;12.15;;;8.25;;
13799;SDS011;6971;50.028;9.258;2023-02-24T20:24:32;10.23;;;8.03;;
13799;SDS011;6971;50.028;9.258;2023-02-24T20:29:34;15.57;;;9.00;;
13799;SDS011;6971;50.028;9.258;2023-02-24T20:34:35;17.33;;;9.97;;
13799;SDS011;6971;50.028;9.258;2023-02-24T20:39:36;13.03;;;8.67;;
13799;SDS011;6971;50.028;9.258;2023-02-24T20:44:38;12.33;;;9.07;;
13799;SDS011;6971;50.028;9.258;2023-02-24T20:49:39;14.43;;;9.97;;
13799;SDS011;6971;50.028;9.258;2023-02-24T20:54:39;13.27;;;10.07;;
13799;SDS011;6971;50.028;9.258;2023-02-24T20:59:42;16.33;;;10.73;;
13799;SDS011;6971;50.028;9.258;2023-02-24T21:04:43;16.33;;;11.13;;
13799;SDS011;6971;50.028;9.258;2023-02-24T21:09:44;17.27;;;11.17;;
13799;SDS011;6971;50.028;9.258;2023-02-24T21:14:44;14.70;;;10.83;;
13799;SDS011;6971;50.028;9.258;2023-02-24T21:19:45;16.33;;;10.90;;
13799;SDS011;6971;50.028;9.258;2023-02-24T21:24:45;12.63;;;10.60;;
13799;SDS011;6971;50.028;9.258;2023-02-24T21:29:45;16.43;;;11.10;;
13799;SDS011;6971;50.028;9.258;2023-02-24T21:34:46;20.27;;;12.27;;
13799;SDS011;6971;50.028;9.258;2023-02-24T21:39:46;14.80;;;11.70;;
13799;SDS011;6971;50.028;9.258;2023-02-24T21:44:46;16.67;;;11.07;;
13799;SDS011;6971;50.028;9.258;2023-02-24T21:49:51;16.60;;;11.93;;
13799;SDS011;6971;50.028;9.258;2023-02-24T21:54:51;21.90;;;13.47;;
13799;SDS011;6971;50.028;9.258;2023-02-24T21:59:52;16.13;;;11.77;;
13799;SDS011;6971;50.028;9.258;2023-02-24T22:04:52;16.43;;;13.03;;
13799;SDS011;6971;50.028;9.258;2023-02-24T22:09:52;18.83;;;12.73;;
13799;SDS011;6971;50.028;9.258;2023-02-24T22:14:53;20.80;;;12.50;;
13799;SDS011;6971;50.028;9.258;2023-02-24T22:19:53;19.73;;;13.67;;
13799;SDS011;6971;50.028;9.258;2023-02-24T22:24:55;20.87;;;11.83;;
13799;SDS011;6971;50.028;9.258;2023-02-24T22:29:55;19.23;;;13.03;;
13799;SDS011;6971;50.028;9.258;2023-02-24T22:34:56;20.43;;;12.20;;
13799;SDS011;6971;50.028;9.258;2023-02-24T22:39:56;19.63;;;13.75;;
13799;SDS011;6971;50.028;9.258;2023-02-24T22:44:56;15.45;;;11.35;;
13799;SDS011;6971;50.028;9.258;2023-02-24T22:49:56;15.23;;;10.90;;
13799;SDS011;6971;50.028;9.258;2023-02-24T22:54:57;15.77;;;11.30;;
13799;SDS011;6971;50.028;9.258;2023-02-24T22:59:57;14.60;;;10.65;;
13799;SDS011;6971;50.028;9.258;2023-02-24T23:04:57;12.27;;;9.52;;
13799;SDS011;6971;50.028;9.258;2023-02-24T23:09:58;10.97;;;8.43;;
13799;SDS011;6971;50.028;9.258;2023-02-24T23:14:58;10.43;;;7.70;;
13799;SDS011;6971;50.028;9.258;2023-02-24T23:19:58;13.57;;;7.50;;
13799;SDS011;6971;50.028;9.258;2023-02-24T23:24:59;9.87;;;6.20;;
13799;SDS011;6971;50.028;9.258;2023-02-24T23:30:00;9.90;;;7.30;;
13799;SDS011;6971;50.028;9.258;2023-02-24T23:35:00;7.40;;;5.83;;
13799;SDS011;6971;50.028;9.258;2023-02-24T23:40:00;8.70;;;6.13;;
13799;SDS011;6971;50.028;9.258;2023-02-24T23:45:01;7.60;;;4.80;;
13799;SDS011;6971;50.028;9.258;2023-02-24T23:50:03;6.40;;;4.03;;
13799;SDS011;6971;50.028;9.258;2023-02-24T23:55:03;6.87;;;3.73;;
